Time;durP1;ratioP1;P1;durP2;ratioP2;P2;SDS_P1;SDS_P2;PMS_P1;PMS_P2;Temp;Humidity;BMP_temperature;BMP_pressure;BME280_temperature;BME280_humidity;BME280_pressure;Samples;Min_cycle;Max_cycle;Signal;HPM_P1;HPM_P2
2023/03/11 07:01:13;;;;;;;5.10;3.38;;;;;;;-145.79;71.49;78907.94;5322463;27;20343;-69
2023/03/11 07:03:46;;;;;;;4.68;3.10;;;;;;;-145.79;71.83;78907.94;5306837;28;20036;-69
2023/03/11 07:06:20;;;;;;;6.32;3.00;;;;;;;-145.79;71.77;78899.47;5311431;28;20429;-69
2023/03/11 07:08:52;;;;;;;7.90;2.88;;;;;;;-145.79;71.46;78901.56;5305397;28;20217;-70
2023/03/11 07:11:26;;;;;;;4.38;2.90;;;;;;;-145.79;71.39;78907.94;5322095;28;20032;-70
2023/03/11 07:13:57;;;;;;;5.68;3.08;;;;;;;-145.79;71.36;78901.56;5321105;28;20027;-70
2023/03/11 07:16:29;;;;;;;5.85;4.10;;;;;;;-145.79;71.65;78895.22;5317143;28;20024;-70
2023/03/11 07:19:02;;;;;;;6.43;3.17;;;;;;;-145.79;71.28;78895.22;5310470;28;20036;-70
2023/03/11 07:21:33;;;;;;;6.28;2.70;;;;;;;-145.79;70.97;78884.63;5300070;28;20099;-70
2023/03/11 07:24:05;;;;;;;7.20;2.75;;;;;;;-145.79;71.25;78878.25;5302738;28;20111;-70
2023/03/11 07:26:36;;;;;;;7.45;3.05;;;;;;;-145.79;70.78;78869.78;5300203;28;20301;-70
2023/03/11 07:29:09;;;;;;;4.82;2.80;;;;;;;-145.79;70.28;78874.00;5300681;28;20104;-70
2023/03/11 07:31:40;;;;;;;7.88;2.88;;;;;;;-145.79;71.11;78852.81;5300805;28;20029;-70
2023/03/11 07:34:14;;;;;;;4.32;2.60;;;;;;;-145.79;70.65;78861.28;5311610;28;20082;-70
2023/03/11 07:36:46;;;;;;;5.72;3.25;;;;;;;-145.79;70.63;78840.09;5300337;28;20024;-70
2023/03/11 07:39:18;;;;;;;7.72;2.90;;;;;;;-145.79;70.55;78837.97;5300747;28;20464;-70
2023/03/11 07:41:49;;;;;;;8.68;3.17;;;;;;;-145.79;70.34;78833.72;5299686;28;20035;-68
2023/03/11 07:44:21;;;;;;;4.50;2.47;;;;;;;-145.79;70.51;78814.63;5300459;28;20017;-66
2023/03/11 07:46:52;;;;;;;5.40;2.50;;;;;;;-145.79;70.09;78814.63;5300204;28;20037;-67
2023/03/11 07:49:23;;;;;;;10.60;3.28;;;;;;;-145.79;69.06;78814.63;5299106;28;20494;-67
2023/03/11 07:51:55;;;;;;;5.68;3.50;;;;;;;-145.79;69.68;78804.03;5313205;28;20098;-67
2023/03/11 07:54:26;;;;;;;4.40;2.30;;;;;;;-145.79;69.82;78797.69;5320634;28;20028;-67
2023/03/11 07:56:57;;;;;;;4.72;2.80;;;;;;;-145.79;69.47;78793.44;5313117;28;20028;-68
2023/03/11 07:59:29;;;;;;;8.07;2.50;;;;;;;-145.79;68.58;78784.97;5307549;28;20031;-68
2023/03/11 08:02:04;;;;;;;5.53;2.50;;;;;;;-145.79;68.62;78772.22;5323574;28;20028;-67
2023/03/11 08:04:35;;;;;;;7.03;2.28;;;;;;;-145.79;68.54;78757.38;5340779;28;20023;-68
2023/03/11 08:07:07;;;;;;;7.00;2.80;;;;;;;-145.79;67.90;78748.91;5335209;28;20493;-68
2023/03/11 08:09:38;;;;;;;5.75;3.20;;;;;;;-145.79;65.13;78770.13;5320132;28;20051;-68
2023/03/11 08:12:09;;;;;;;6.65;2.13;;;;;;;-145.79;66.20;78755.28;5308302;28;20479;-67
2023/03/11 08:14:42;;;;;;;8.85;2.15;;;;;;;-145.79;64.33;78770.13;5315561;28;20028;-67
2023/03/11 08:17:13;;;;;;;17.85;3.40;;;;;;;-145.79;68.57;78704.38;5305843;28;20020;-66
2023/03/11 08:19:45;;;;;;;3.63;2.47;;;;;;;-145.79;78.66;78632.28;5305795;28;20047;-65
2023/03/11 08:22:19;;;;;;;6.43;3.15;;;;;;;-145.79;67.83;78674.69;5306533;28;20077;-67
2023/03/11 08:24:51;;;;;;;5.00;2.42;;;;;;;-145.79;63.95;78676.81;5321286;28;20118;-66
2023/03/11 08:27:23;;;;;;;8.02;3.25;;;;;;;-145.79;61.07;78678.94;5318312;28;20156;-67
2023/03/11 08:29:54;;;;;;;4.15;2.30;;;;;;;-145.79;60.32;78687.41;5320556;28;20015;-67
2023/03/11 08:32:30;;;;;;;8.77;2.80;;;;;;;-145.79;60.67;78674.69;5306711;28;20114;-66
2023/03/11 08:35:01;;;;;;;7.47;2.60;;;;;;;-145.79;60.44;78678.94;5306264;28;20070;-66
2023/03/11 08:37:35;;;;;;;6.53;2.50;;;;;;;-145.79;59.84;78666.22;5305680;28;20417;-66
2023/03/11 08:40:09;;;;;;;8.45;2.55;;;;;;;-145.79;58.27;78659.84;5305933;28;20032;-67
2023/03/11 08:42:40;;;;;;;6.10;2.08;;;;;;;-145.79;59.46;78634.41;5305868;28;20035;-67
2023/03/11 08:45:12;;;;;;;8.40;2.40;;;;;;;-145.79;58.56;78645.00;5304818;28;20034;-66
2023/03/11 08:47:43;;;;;;;4.80;2.58;;;;;;;-145.79;58.21;78634.41;5306514;28;20103;-67
2023/03/11 08:50:16;;;;;;;6.05;2.58;;;;;;;-145.79;56.99;78649.25;5306008;28;20081;-66
2023/03/11 08:52:48;;;;;;;3.13;1.77;;;;;;;-145.79;57.23;78632.28;5304980;28;20189;-66
2023/03/11 08:55:23;;;;;;;4.65;1.95;;;;;;;-145.79;56.92;78638.66;5317456;28;20103;-66
2023/03/11 08:57:55;;;;;;;6.13;2.17;;;;;;;-145.79;55.67;78632.28;5304998;28;20046;-67
2023/03/11 09:00:28;;;;;;;7.05;2.28;;;;;;;-145.79;57.26;78630.16;5319379;28;20052;-66
2023/03/11 09:03:00;;;;;;;4.20;2.40;;;;;;;-145.79;55.42;78651.38;5326556;28;20037;-67
2023/03/11 09:05:31;;;;;;;8.98;2.30;;;;;;;-145.79;54.58;78642.91;5313086;28;20110;-66
2023/03/11 09:08:03;;;;;;;4.50;1.80;;;;;;;-145.79;54.68;78647.13;5305727;28;20043;-66
2023/03/11 09:10:34;;;;;;;5.05;1.98;;;;;;;-145.79;52.69;78640.78;5305510;28;20020;-66
2023/03/11 09:13:05;;;;;;;7.43;2.00;;;;;;;-145.79;52.32;78628.06;5305050;28;20479;-66
2023/03/11 09:15:37;;;;;;;5.50;2.05;;;;;;;-145.79;53.74;78617.44;5304629;28;20103;-66
2023/03/11 09:18:13;;;;;;;6.15;2.30;;;;;;;-145.79;53.16;78598.38;5322813;28;20034;-68
2023/03/11 09:20:45;;;;;;;4.28;1.75;;;;;;;-145.79;52.50;78602.59;5325436;28;20084;-68
2023/03/11 09:23:19;;;;;;;5.53;1.88;;;;;;;-145.79;52.39;78587.75;5306039;28;20531;-67
2023/03/11 09:25:51;;;;;;;7.30;1.70;;;;;;;-145.79;49.43;78594.13;5307449;28;20046;-66
2023/03/11 09:28:22;;;;;;;5.63;2.13;;;;;;;-145.79;49.87;78585.66;5305635;28;20031;-68
2023/03/11 09:30:54;;;;;;;6.15;1.65;;;;;;;-145.79;48.93;78579.28;5305261;28;20039;-67
2023/03/11 09:33:25;;;;;;;5.10;2.28;;;;;;;-145.79;50.11;78570.81;5304911;28;20020;-68
2023/03/11 09:35:58;;;;;;;2.50;1.50;;;;;;;-145.79;49.09;78592.00;5305793;28;20026;-68
2023/03/11 09:38:29;;;;;;;5.40;1.88;;;;;;;-145.79;49.79;78575.03;5309207;28;20058;-68
2023/03/11 09:41:04;;;;;;;1.73;1.60;;;;;;;-145.79;49.83;78558.09;5325929;28;20510;-67
2023/03/11 09:43:41;;;;;;;4.90;1.42;;;;;;;-145.79;49.76;78560.19;5326455;28;20470;-68
2023/03/11 09:46:40;;;;;;;10.52;5.85;;;;;;;-145.79;50.03;78543.25;5313677;28;20493;-67
2023/03/11 09:49:30;;;;;;;7.65;4.82;;;;;;;-145.79;51.25;78511.44;5326037;28;20028;-68
2023/03/11 09:52:16;;;;;;;8.23;1.95;;;;;;;-145.79;49.54;78509.31;5307162;28;20063;-68
2023/03/11 09:54:51;;;;;;;5.70;1.40;;;;;;;-145.79;49.96;78511.44;5304331;28;20064;-68
2023/03/11 09:57:33;;;;;;;5.70;1.42;;;;;;;-145.79;49.90;78502.97;5311695;28;20031;-67
2023/03/11 10:00:05;;;;;;;3.90;2.47;;;;;;;-145.79;49.20;78502.97;5309014;28;20047;-68
2023/03/11 10:02:38;;;;;;;7.30;3.10;;;;;;;-145.79;49.95;78498.72;5312342;28;20039;-67
2023/03/11 10:05:20;;;;;;;7.40;1.40;;;;;;;-145.79;48.79;78500.84;5315944;28;20069;-66
2023/03/11 10:08:11;;;;;;;4.05;1.20;;;;;;;-145.79;47.75;78500.84;5314544;28;20437;-68
2023/03/11 10:10:54;;;;;;;5.50;1.40;;;;;;;-145.79;48.30;78496.59;5303490;28;20019;-67
2023/03/11 10:13:51;;;;;;;3.08;1.30;;;;;;;-145.79;49.98;78475.41;5314082;28;20076;-68
2023/03/11 10:16:44;;;;;;;7.85;1.88;;;;;;;-145.79;50.45;78483.88;5321927;28;20031;-66
2023/03/11 10:19:32;;;;;;;3.88;1.73;;;;;;;-145.79;49.76;78488.13;5324524;28;20391;-68
2023/03/11 10:22:25;;;;;;;6.25;1.67;;;;;;;-145.79;50.05;78477.50;5324312;28;20034;-67
2023/03/11 10:25:14;;;;;;;7.97;2.88;;;;;;;-145.79;50.99;78475.41;5322869;28;20023;-67
2023/03/11 10:27:54;;;;;;;3.60;1.50;;;;;;;-145.79;49.87;78483.88;5324924;28;20031;-67
2023/03/11 10:30:34;;;;;;;4.93;2.10;;;;;;;-145.79;61.55;78420.28;5311266;28;20375;-68
2023/03/11 10:33:17;;;;;;;5.97;1.50;;;;;;;-145.79;65.45;78403.31;5302633;28;20022;-68
2023/03/11 10:35:55;;;;;;;7.72;1.77;;;;;;;-145.79;52.29;78445.72;5310757;28;20556;-68
2023/03/11 10:38:32;;;;;;;5.88;1.80;;;;;;;-145.79;50.91;78458.44;5305287;28;20020;-69
2023/03/11 10:41:11;;;;;;;8.18;2.70;;;;;;;-145.79;49.15;78464.78;5302557;28;20028;-66
2023/03/11 10:43:50;;;;;;;6.28;1.83;;;;;;;-145.79;49.34;78464.78;5303365;28;20133;-68
2023/03/11 10:46:25;;;;;;;4.28;1.67;;;;;;;-145.79;47.44;78473.28;5306327;28;20455;-67
2023/03/11 10:48:56;;;;;;;2.78;1.45;;;;;;;-145.79;46.75;78481.75;5323222;28;20534;-67
2023/03/11 10:51:34;;;;;;;5.30;1.70;;;;;;;-145.79;48.55;78473.28;5307339;28;20111;-67
2023/03/11 10:54:05;;;;;;;3.10;1.40;;;;;;;-145.79;46.74;78486.00;5302250;28;20051;-66
2023/03/11 10:56:39;;;;;;;2.88;1.30;;;;;;;-145.79;48.07;78475.41;5302363;28;20423;-67
2023/03/11 10:59:45;;;;;;;3.47;1.70;;;;;;;-145.79;48.86;78454.19;5319611;28;20482;-66
2023/03/11 11:02:36;;;;;;;14.25;7.93;;;;;;;-145.79;48.44;78456.31;5316122;28;20035;-65
2023/03/11 11:05:17;;;;;;;2.72;1.45;;;;;;;-145.79;47.83;78462.66;5310767;28;20051;-66
2023/03/11 11:07:52;;;;;;;6.20;2.10;;;;;;;-145.79;47.44;78456.31;5322570;28;20047;-65
2023/03/11 11:10:26;;;;;;;2.70;1.60;;;;;;;-145.79;49.15;78441.47;5304033;28;20039;-66
2023/03/11 11:13:25;;;;;;;5.30;2.53;;;;;;;-145.79;48.96;78439.34;5300619;28;20636;-65
2023/03/11 11:16:03;;;;;;;6.47;1.95;;;;;;;-145.79;48.29;78445.72;5301315;28;20111;-66
2023/03/11 11:18:44;;;;;;;5.20;2.00;;;;;;;-145.79;47.61;78445.72;5301422;28;20016;-66
2023/03/11 11:21:31;;;;;;;7.07;3.80;;;;;;;-145.79;47.55;78447.84;5312204;28;20530;-67
2023/03/11 11:24:15;;;;;;;4.03;1.85;;;;;;;-145.79;47.91;78458.44;5307993;28;20042;-67
2023/03/11 11:27:13;;;;;;;4.93;1.42;;;;;;;-145.79;47.52;78456.31;5302510;28;20036;-66
2023/03/11 11:29:46;;;;;;;3.95;1.70;;;;;;;-145.79;47.71;78473.28;5303181;28;20035;-66
2023/03/11 11:32:24;;;;;;;23.98;15.55;;;;;;;-145.79;47.61;78473.28;5302925;28;20059;-65
2023/03/11 11:35:09;;;;;;;8.52;4.43;;;;;;;-145.79;46.93;78458.44;5311760;28;20043;-66
2023/03/11 11:37:45;;;;;;;3.63;1.25;;;;;;;-145.79;45.92;78481.75;5309454;28;20483;-65
2023/03/11 11:40:20;;;;;;;;;;;;;;;-145.79;46.37;78473.28;5323849;28;20019;-65
2023/03/11 11:42:55;;;;;;;7.90;1.80;;;;;;;-145.79;46.36;78473.28;5324280;28;20424;-65
2023/03/11 11:45:43;;;;;;;5.90;1.77;;;;;;;-145.79;46.89;78466.91;5324223;28;20036;-67
2023/03/11 11:48:44;;;;;;;7.97;1.75;;;;;;;-145.79;46.00;78454.19;5326190;28;20412;-67
2023/03/11 11:51:22;;;;;;;4.45;1.30;;;;;;;-145.79;46.58;78435.09;5274952;28;20071;-67
2023/03/11 11:54:05;;;;;;;4.05;1.50;;;;;;;-145.79;45.62;78439.34;5314068;28;20024;-67
2023/03/11 11:56:39;;;;;;;3.58;1.60;;;;;;;-145.79;46.45;78407.53;5315442;28;20331;-67
2023/03/11 11:59:20;;;;;;;5.28;1.50;;;;;;;-145.79;46.72;78401.19;5326963;28;20059;-69
2023/03/11 12:02:10;;;;;;;5.65;1.42;;;;;;;-145.79;46.34;78394.81;5325146;28;20110;-68
2023/03/11 12:04:53;;;;;;;27.20;22.45;;;;;;;-145.79;45.24;78386.34;5323282;28;20459;-69
2023/03/11 12:07:33;;;;;;;4.20;2.58;;;;;;;-145.79;46.25;78358.78;5315151;28;20051;-68
2023/03/11 12:10:17;;;;;;;4.72;2.63;;;;;;;-145.79;47.08;78339.69;5319231;28;20023;-67
2023/03/11 12:13:04;;;;;;;4.65;1.98;;;;;;;-145.79;46.36;78326.97;5319280;28;20363;-67
2023/03/11 12:15:54;;;;;;;4.22;1.70;;;;;;;-145.79;44.70;78322.75;5313486;28;20024;-67
2023/03/11 12:18:34;;;;;;;4.50;2.40;;;;;;;-145.79;44.20;78312.13;5310037;28;20032;-67
2023/03/11 12:21:28;;;;;;;3.63;1.35;;;;;;;-145.79;44.40;78299.41;5318024;28;20102;-66
2023/03/11 12:24:18;;;;;;;3.80;1.73;;;;;;;-145.79;43.11;78295.19;5324427;28;20039;-66
2023/03/11 12:26:53;;;;;;;4.68;1.58;;;;;;;-145.79;43.20;78271.84;5306225;28;20039;-66
2023/03/11 12:29:35;;;;;;;5.07;2.30;;;;;;;-145.79;43.00;78261.25;5317445;28;20027;-66
2023/03/11 12:32:14;;;;;;;5.05;2.25;;;;;;;-145.79;43.48;78276.09;5327669;28;20474;-65
2023/03/11 12:34:46;;;;;;;3.85;1.30;;;;;;;-145.79;42.45;78273.97;5327507;28;20034;-65
2023/03/11 12:37:20;;;;;;;2.38;1.33;;;;;;;-145.79;41.34;78293.06;5314550;28;20024;-65
2023/03/11 12:39:51;;;;;;;5.53;1.55;;;;;;;-145.79;42.72;78263.38;5306225;28;20310;-65
2023/03/11 12:42:26;;;;;;;6.45;1.70;;;;;;;-145.79;42.21;78269.75;5306112;28;20028;-68
2023/03/11 12:45:40;;;;;;;10.43;7.72;;;;;;;-145.79;43.59;78218.84;5305680;28;20416;-67
2023/03/11 12:48:32;;;;;;;8.65;4.90;;;;;;;-145.79;43.00;78195.53;5299672;28;20146;-68
2023/03/11 12:51:04;;;;;;;5.97;2.30;;;;;;;-145.79;42.54;78191.28;5306243;28;20698;-67
2023/03/11 12:53:47;;;;;;;3.95;1.40;;;;;;;-145.79;44.15;78155.25;5305290;28;20043;-66
2023/03/11 12:56:34;;;;;;;5.95;2.72;;;;;;;-145.79;44.92;78140.41;5305871;28;20012;-66
2023/03/11 12:59:16;;;;;;;8.60;5.88;;;;;;;-145.79;42.81;78136.19;5308067;28;20077;-65
2023/03/11 13:02:09;;;;;;;3.45;2.00;;;;;;;-145.79;41.47;78136.19;5308559;28;20039;-66
2023/03/11 13:04:51;;;;;;;2.92;1.30;;;;;;;-145.79;41.87;78129.81;5305062;28;20111;-66
2023/03/11 13:07:46;;;;;;;4.95;1.60;;;;;;;-145.79;42.01;78098.00;5305390;28;20548;-67
2023/03/11 13:10:44;;;;;;;2.67;1.25;;;;;;;-145.79;43.03;78078.94;5308371;28;20522;-66
2023/03/11 13:13:34;;;;;;;2.97;1.98;;;;;;;-145.79;41.13;78061.97;5317436;28;20044;-66
2023/03/11 13:16:11;;;;;;;3.33;2.30;;;;;;;-145.79;43.18;78049.25;5323648;28;20019;-66
2023/03/11 13:18:48;;;;;;;3.58;2.42;;;;;;;-145.79;41.26;78068.34;5304592;28;20052;-66
2023/03/11 13:21:36;;;;;;;2.50;1.67;;;;;;;-145.79;41.98;78087.41;5324528;28;20313;-67
2023/03/11 13:24:24;;;;;;;6.03;1.40;;;;;;;-145.79;48.30;78032.28;5326599;28;20031;-67
2023/03/11 13:26:59;;;;;;;6.47;3.50;;;;;;;-145.79;44.51;78030.19;5323769;28;20023;-66
2023/03/11 13:29:56;;;;;;;4.63;1.73;;;;;;;-145.79;43.54;78025.94;5314790;28;20031;-67
2023/03/11 13:32:53;;;;;;;2.58;1.50;;;;;;;-145.79;42.79;78072.56;5325548;28;20100;-68
2023/03/11 13:35:35;;;;;;;1.90;1.30;;;;;;;-145.79;42.84;78021.69;5273957;28;20036;-67
2023/03/11 13:38:22;;;;;;;3.88;1.70;;;;;;;-145.79;40.92;78021.69;5305837;28;20107;-67
2023/03/11 13:40:54;;;;;;;11.35;2.97;;;;;;;-145.79;42.40;78019.56;5313336;28;20032;-66
2023/03/11 13:43:31;;;;;;;6.03;2.00;;;;;;;-145.79;42.78;77983.53;5305718;28;20031;-66
2023/03/11 13:46:13;;;;;;;4.95;2.63;;;;;;;-145.79;42.59;77983.53;5303818;28;20031;-66
2023/03/11 13:48:53;;;;;;;140.88;85.72;;;;;;;-145.79;45.09;77945.38;5304615;28;20103;-66
2023/03/11 13:51:35;;;;;;;4.72;2.03;;;;;;;-145.79;44.11;77953.84;5304770;28;20379;-66
2023/03/11 13:54:27;;;;;;;6.85;1.80;;;;;;;-145.79;41.73;77979.28;5303996;28;20039;-65
2023/03/11 13:57:01;;;;;;;4.78;2.17;;;;;;;-145.79;42.06;77994.13;5304596;28;20080;-66
2023/03/11 13:59:33;;;;;;;6.32;1.90;;;;;;;-145.79;41.62;77985.66;5312912;28;20051;-66
2023/03/11 14:02:20;;;;;;;5.32;1.75;;;;;;;-145.79;42.45;77958.09;5311788;28;20028;-66
2023/03/11 14:05:04;;;;;;;6.80;1.70;;;;;;;-145.79;42.25;77945.38;5312870;28;20032;-66
2023/03/11 14:07:37;;;;;;;2.67;1.40;;;;;;;-145.79;39.08;77966.56;5312713;28;20104;-66
2023/03/11 14:10:27;;;;;;;6.95;2.30;;;;;;;-145.79;39.88;77941.13;5311251;28;20058;-66
2023/03/11 14:13:14;;;;;;;4.28;1.95;;;;;;;-145.79;39.12;77947.50;5312678;28;20115;-66
2023/03/11 14:15:51;;;;;;;2.58;1.10;;;;;;;-145.79;38.48;77962.34;5313434;28;20454;-66
2023/03/11 14:18:41;;;;;;;3.35;1.38;;;;;;;-145.79;41.54;77932.66;5312845;28;20065;-66
2023/03/11 14:21:15;;;;;;;5.63;3.05;;;;;;;-145.79;42.79;77902.97;5311944;28;20059;-66
2023/03/11 14:23:48;;;;;;;2.72;1.50;;;;;;;-145.79;36.00;77962.34;5314510;28;20043;-66
2023/03/11 14:26:23;;;;;;;5.95;2.22;;;;;;;-145.79;39.52;77962.34;5314013;28;20228;-66
2023/03/11 14:29:01;;;;;;;3.15;1.58;;;;;;;-145.79;35.49;77962.34;5311771;28;20020;-66
2023/03/11 14:31:35;;;;;;;6.70;4.25;;;;;;;-145.79;35.99;77958.09;5311297;28;20158;-66
2023/03/11 14:34:09;;;;;;;17.25;9.57;;;;;;;-145.79;36.15;77962.34;5313505;28;20024;-66
2023/03/11 14:36:49;;;;;;;1.88;1.52;;;;;;;-145.79;36.93;77962.34;5311578;28;20076;-64
2023/03/11 14:39:28;;;;;;;2.90;1.90;;;;;;;-145.79;37.04;77951.72;5314783;28;20059;-64
2023/03/11 14:42:18;;;;;;;4.80;1.70;;;;;;;-145.79;38.99;77926.28;5311480;28;20016;-64
2023/03/11 14:45:06;;;;;;;3.63;1.38;;;;;;;-145.79;37.43;77928.41;5310201;28;20493;-65
2023/03/11 14:47:50;;;;;;;5.45;2.17;;;;;;;-145.79;36.96;77947.50;5312100;28;20042;-66
2023/03/11 14:50:25;;;;;;;5.63;2.22;;;;;;;-145.79;36.95;77932.66;5311796;28;20054;-66
2023/03/11 14:53:06;;;;;;;3.28;1.40;;;;;;;-145.79;37.08;77930.53;5310989;28;20520;-65
2023/03/11 14:55:42;;;;;;;1.88;1.20;;;;;;;-145.79;36.57;77970.81;5312965;28;20020;-66
2023/03/11 14:58:27;;;;;;;5.40;1.48;;;;;;;-145.79;36.78;77953.84;5311490;28;20387;-66
2023/03/11 15:01:39;;;;;;;3.05;1.40;;;;;;;-145.79;37.85;77955.97;5312342;28;20056;-66
2023/03/11 15:04:20;;;;;;;4.78;2.60;;;;;;;-145.79;36.66;77953.84;5261182;28;20599;-65
2023/03/11 15:06:52;;;;;;;3.50;1.75;;;;;;;-145.79;35.79;77989.91;5312170;28;20028;-66
2023/03/11 15:09:26;;;;;;;79.00;56.75;;;;;;;-145.79;40.54;77962.34;5312736;28;20035;-65
2023/03/11 15:12:00;;;;;;;7.38;2.40;;;;;;;-145.79;38.02;77983.53;5312687;28;20455;-65
2023/03/11 15:14:34;;;;;;;2.90;2.10;;;;;;;-145.79;36.70;77972.94;5312069;28;20020;-65
2023/03/11 15:17:27;;;;;;;2.42;1.70;;;;;;;-145.79;37.70;77955.97;5310919;28;20027;-65
2023/03/11 15:19:58;;;;;;;19.80;10.07;;;;;;;-145.79;37.26;77979.28;5311826;28;20108;-65
2023/03/11 15:22:38;;;;;;;9.32;4.57;;;;;;;-145.79;37.63;77979.28;5313761;28;20040;-65
2023/03/11 15:25:18;;;;;;;5.05;2.00;;;;;;;-145.79;38.76;77977.19;5315100;28;20556;-65
2023/03/11 15:27:49;;;;;;;4.93;2.42;;;;;;;-145.79;38.94;77966.56;5315857;28;20090;-64
2023/03/11 15:30:25;;;;;;;6.10;2.47;;;;;;;-145.79;37.31;77979.28;5318864;28;20484;-66
2023/03/11 15:32:57;;;;;;;4.45;2.28;;;;;;;-145.79;40.08;77983.53;5314083;28;20024;-66
2023/03/11 15:35:30;;;;;;;11.07;3.92;;;;;;;-145.79;37.93;78028.06;5315910;28;20420;-65
2023/03/11 15:38:18;;;;;;;6.03;1.80;;;;;;;-145.79;38.25;78059.84;5315185;28;20028;-66
2023/03/11 15:41:01;;;;;;;5.93;2.00;;;;;;;-145.79;39.37;78055.63;5317904;27;20635;-66
2023/03/11 15:43:43;;;;;;;4.38;1.90;;;;;;;-145.79;40.03;78059.84;5314458;28;20154;-67
2023/03/11 15:46:14;;;;;;;3.03;1.70;;;;;;;-145.79;38.39;78053.50;5315833;28;20024;-66
2023/03/11 15:48:45;;;;;;;4.18;1.90;;;;;;;-145.79;38.30;78008.97;5315980;28;20035;-66
2023/03/11 15:51:18;;;;;;;4.65;2.80;;;;;;;-145.79;38.50;78004.72;5315784;28;20067;-66
2023/03/11 15:53:50;;;;;;;5.95;3.20;;;;;;;-145.79;41.68;77964.47;5315254;28;20028;-66
2023/03/11 15:56:23;;;;;;;8.32;6.40;;;;;;;-145.79;40.15;77983.53;5314622;28;20030;-66
2023/03/11 15:58:55;;;;;;;6.72;4.18;;;;;;;-145.79;39.92;77962.34;5315638;28;20055;-66
2023/03/11 16:01:27;;;;;;;7.28;4.03;;;;;;;-145.79;38.37;77960.22;5313760;28;20460;-66
2023/03/11 16:03:59;;;;;;;6.07;2.30;;;;;;;-145.79;38.21;77962.34;5311339;28;20035;-66
2023/03/11 16:06:30;;;;;;;2.65;2.00;;;;;;;-145.79;38.25;77962.34;5317004;28;20343;-65
2023/03/11 16:09:01;;;;;;;3.55;2.30;;;;;;;-145.79;41.44;77943.25;5316095;28;20123;-66
2023/03/11 16:11:33;;;;;;;5.75;2.17;;;;;;;-145.79;39.75;77951.72;5316416;28;20012;-71
2023/03/11 16:14:13;;;;;;;15.18;11.00;;;;;;;-145.79;38.19;77981.41;5313368;28;20043;-74
2023/03/11 16:16:46;;;;;;;10.65;3.33;;;;;;;-145.79;37.61;77983.53;5317645;28;20024;-75
2023/03/11 16:19:17;;;;;;;3.50;2.30;;;;;;;-145.79;35.42;78000.50;5315801;28;20390;-75
2023/03/11 16:21:49;;;;;;;9.38;4.18;;;;;;;-145.79;36.59;78008.97;5310898;28;20038;-75
2023/03/11 16:24:23;;;;;;;6.07;1.92;;;;;;;-145.79;36.34;78011.09;5306634;28;20024;-74
2023/03/11 16:26:59;;;;;;;2.45;1.45;;;;;;;-145.79;36.32;78038.66;5295735;28;20128;-74
2023/03/11 16:29:32;;;;;;;5.07;3.00;;;;;;;-145.79;36.86;78038.66;5326744;28;20054;-75
2023/03/11 16:32:03;;;;;;;3.25;1.75;;;;;;;-145.79;35.55;78057.72;5327822;28;20077;-75
